Terminal Aerodrome Forecast
Issued by NWS Pittsburgh, PA

Current Version | Previous Version | Graphics & Text | Print | Product List | Glossary On
Versions: 1 2 3 4 5 6 7 8 9 10 11 12 13 14 15 16 17 18 19 20 21 22 23 24 25 26 27 28 29 30 31 32
000
FTUS41 KPBZ 151900 AAB
TAFPIT
TAF AMD
KPIT 151903Z 1519/1624 14003KT 5SM HZ SCT008 BKN015
      TEMPO 1519/1523 BKN008
     FM160200 13005KT P6SM BKN200
     FM160900 15005KT 5SM -SHRA OVC020=

USA.gov is the U.S. government's official web portal to all federal, state and local government web resources and services.